Time;durP1;ratioP1;P1;durP2;ratioP2;P2;SDS_P1;SDS_P2;PMS_P1;PMS_P2;Temp;Humidity;BMP_temperature;BMP_pressure;BME280_temperature;BME280_humidity;BME280_pressure;Samples;Min_cycle;Max_cycle;Signal;HPM_P1;HPM_P2
2023/12/10 00:00:12;;;;;;;24.77;5.43;;;;;;;9.46;79.68;99564.41;5053299;28;20239;-74
2023/12/10 00:02:38;;;;;;;26.30;5.60;;;;;;;9.43;78.73;99571.94;5052107;28;20199;-74
2023/12/10 00:05:05;;;;;;;29.23;5.57;;;;;;;9.44;78.88;99568.28;5053331;28;20191;-74
2023/12/10 00:07:32;;;;;;;35.53;5.17;;;;;;;9.39;79.02;99567.94;5053579;28;20205;-74
2023/12/10 00:09:58;;;;;;;37.53;6.67;;;;;;;9.40;79.26;99564.28;5053199;28;20620;-74
2023/12/10 00:12:25;;;;;;;25.27;5.17;;;;;;;9.36;79.36;99563.81;5053218;28;20221;-74
2023/12/10 00:14:54;;;;;;;17.40;5.40;;;;;;;9.40;79.40;99574.97;5053677;28;20198;-74
2023/12/10 00:17:22;;;;;;;27.20;5.20;;;;;;;9.38;78.61;99574.28;5053041;28;20199;-74
2023/12/10 00:19:48;;;;;;;26.30;5.43;;;;;;;9.37;78.33;99584.16;5053087;28;20210;-74
2023/12/10 00:22:16;;;;;;;29.33;5.40;;;;;;;9.38;78.27;99585.78;5053373;28;20289;-74
2023/12/10 00:24:43;;;;;;;16.23;4.97;;;;;;;9.40;77.43;99589.13;5053361;28;20183;-74
2023/12/10 00:27:09;;;;;;;23.90;4.60;;;;;;;9.42;78.00;99591.63;5053050;28;20191;-74
2023/12/10 00:29:36;;;;;;;29.53;5.23;;;;;;;9.45;77.69;99593.94;5052980;28;20586;-74
2023/12/10 00:32:03;;;;;;;17.90;6.03;;;;;;;9.41;77.84;99601.47;5053011;28;20187;-74
2023/12/10 00:34:29;;;;;;;27.53;5.53;;;;;;;9.45;77.27;99605.47;5053297;28;20696;-74
2023/12/10 00:36:56;;;;;;;23.57;5.30;;;;;;;9.37;77.22;99608.16;5053173;28;20199;-74
2023/12/10 00:39:22;;;;;;;21.80;5.23;;;;;;;9.41;77.63;99609.47;5052882;28;20207;-74
2023/12/10 00:41:49;;;;;;;23.60;4.63;;;;;;;9.42;77.24;99611.09;5053228;28;20619;-74
2023/12/10 00:44:15;;;;;;;29.60;5.17;;;;;;;9.46;76.81;99614.28;5053193;28;20603;-75
2023/12/10 00:46:42;;;;;;;25.73;5.07;;;;;;;9.52;76.12;99614.44;5053165;28;20236;-74
2023/12/10 00:49:09;;;;;;;18.83;4.87;;;;;;;9.50;76.54;99612.94;5053043;28;20203;-75
2023/12/10 00:51:36;;;;;;;28.70;5.10;;;;;;;9.57;76.37;99611.25;5052825;28;20187;-75
2023/12/10 00:54:05;;;;;;;24.57;4.73;;;;;;;9.58;75.91;99615.59;5052811;28;20190;-75
2023/12/10 00:56:31;;;;;;;24.87;4.47;;;;;;;9.53;76.23;99629.44;5052717;28;20218;-75
2023/12/10 00:58:58;;;;;;;16.87;4.27;;;;;;;9.52;76.13;99630.44;5052717;28;20553;-75
2023/12/10 01:01:24;;;;;;;26.80;5.77;;;;;;;9.50;75.88;99631.63;5055331;28;20190;-74
2023/12/10 01:03:51;;;;;;;32.87;5.33;;;;;;;9.47;76.51;99623.94;5056674;28;20219;-75
2023/12/10 01:06:18;;;;;;;25.50;3.77;;;;;;;9.51;76.43;99631.44;5056630;28;20188;-74
2023/12/10 01:08:44;;;;;;;32.90;5.67;;;;;;;9.60;75.64;99625.06;5056533;28;20230;-75
2023/12/10 01:11:11;;;;;;;22.23;5.60;;;;;;;9.52;76.03;99622.44;5056796;28;20191;-74
2023/12/10 01:13:37;;;;;;;32.13;5.67;;;;;;;9.56;76.00;99622.91;5057044;28;20188;-74
2023/12/10 01:16:04;;;;;;;23.63;5.43;;;;;;;9.59;75.69;99628.72;5056581;28;20207;-75
2023/12/10 01:18:34;;;;;;;26.43;5.10;;;;;;;9.60;75.18;99633.06;5056291;28;20223;-74
2023/12/10 01:21:01;;;;;;;24.93;4.90;;;;;;;9.63;75.35;99637.25;5056965;28;20248;-75
2023/12/10 01:23:27;;;;;;;21.53;5.73;;;;;;;9.58;75.60;99643.09;5056345;28;20678;-75
2023/12/10 01:25:54;;;;;;;22.87;5.43;;;;;;;9.58;76.06;99650.28;5056333;28;20229;-74
2023/12/10 01:28:20;;;;;;;13.50;4.63;;;;;;;9.54;75.64;99654.28;5056211;28;20211;-75
2023/12/10 01:30:47;;;;;;;21.57;5.07;;;;;;;9.56;74.93;99650.44;5056475;28;20700;-75
2023/12/10 01:33:13;;;;;;;17.87;6.10;;;;;;;9.55;75.38;99669.25;5056157;28;20191;-74
2023/12/10 01:35:40;;;;;;;21.37;5.03;;;;;;;9.59;74.63;99660.75;5056298;28;20203;-74
2023/12/10 01:38:07;;;;;;;23.30;5.03;;;;;;;9.53;75.13;99664.13;5056061;28;20188;-74
2023/12/10 01:40:33;;;;;;;16.47;5.37;;;;;;;9.55;75.28;99663.94;5056069;28;20183;-74
2023/12/10 01:43:05;;;;;;;24.53;5.23;;;;;;;9.52;75.25;99664.28;5055972;28;20241;-74
2023/12/10 01:45:32;;;;;;;27.50;6.57;;;;;;;9.54;75.63;99668.47;5056545;28;20237;-74
2023/12/10 01:48:00;;;;;;;18.60;4.90;;;;;;;9.48;75.39;99673.63;5055820;28;20188;-73
2023/12/10 01:50:27;;;;;;;19.03;5.23;;;;;;;9.56;75.75;99685.13;5055865;28;20191;-74
2023/12/10 01:52:54;;;;;;;15.37;5.33;;;;;;;9.55;75.08;99680.78;5055808;28;20187;-74
2023/12/10 01:55:20;;;;;;;22.27;4.73;;;;;;;9.47;75.67;99694.13;5055704;28;20559;-73
2023/12/10 01:57:47;;;;;;;19.77;4.93;;;;;;;9.50;75.03;99692.97;5056235;28;20193;-74
2023/12/10 02:00:14;;;;;;;20.70;4.60;;;;;;;9.53;74.15;99700.63;5055561;28;20215;-74
2023/12/10 02:02:42;;;;;;;26.43;5.53;;;;;;;9.46;74.77;99691.66;5056119;28;20586;-74
2023/12/10 02:05:09;;;;;;;22.67;5.53;;;;;;;9.45;74.67;99687.31;5055535;28;20202;-74
2023/12/10 02:07:36;;;;;;;23.83;4.73;;;;;;;9.44;74.85;99705.16;5055554;28;20187;-74
2023/12/10 02:10:06;;;;;;;17.70;5.00;;;;;;;9.43;74.49;99697.31;5055448;28;20272;-74
2023/12/10 02:12:34;;;;;;;18.30;4.93;;;;;;;9.42;74.45;99703.66;5055012;28;20168;-73
2023/12/10 02:15:14;;;;;;;11.00;4.80;;;;;;;9.34;75.40;99706.31;5055377;28;20187;-74
2023/12/10 02:17:41;;;;;;;9.33;3.77;;;;;;;9.21;76.17;99698.03;5055268;28;20207;-74
2023/12/10 02:20:14;;;;;;;20.97;4.17;;;;;;;9.25;76.14;99705.50;5055218;28;20217;-74
2023/12/10 02:23:02;;;;;;;17.47;4.93;;;;;;;9.28;75.30;99715.84;5055503;28;20248;-74
2023/12/10 02:25:33;;;;;;;16.77;4.47;;;;;;;9.30;75.28;99713.84;5055760;28;20178;-74
2023/12/10 02:28:02;;;;;;;29.00;4.17;;;;;;;9.29;75.92;99720.19;5055058;28;20554;-73
2023/12/10 02:30:28;;;;;;;10.93;4.50;;;;;;;9.33;75.19;99713.53;5055350;28;20599;-74
2023/12/10 02:32:55;;;;;;;16.67;4.33;;;;;;;9.28;75.65;99715.84;5055553;28;20278;-74
2023/12/10 02:35:22;;;;;;;13.53;4.10;;;;;;;9.30;75.46;99727.16;5054981;28;20193;-74
2023/12/10 02:37:50;;;;;;;13.37;4.10;;;;;;;9.32;75.27;99714.50;5054846;28;20203;-74
2023/12/10 02:40:17;;;;;;;22.77;6.00;;;;;;;9.31;75.57;99725.34;5054812;28;20207;-74
2023/12/10 02:42:45;;;;;;;12.47;4.57;;;;;;;9.32;74.98;99719.84;5054842;28;20202;-74
2023/12/10 02:45:12;;;;;;;27.10;5.23;;;;;;;9.36;74.89;99723.00;5054785;28;20190;-74
2023/12/10 02:47:39;;;;;;;18.53;5.37;;;;;;;9.36;75.29;99720.34;5055530;28;20198;-74
2023/12/10 02:50:09;;;;;;;14.77;3.93;;;;;;;9.31;75.50;99728.84;5054674;28;20246;-74
2023/12/10 02:52:36;;;;;;;13.40;4.33;;;;;;;9.36;75.25;99723.84;5054637;28;20188;-74
2023/12/10 02:55:04;;;;;;;19.20;4.93;;;;;;;9.34;75.52;99731.16;5054609;28;20187;-74
2023/12/10 02:57:31;;;;;;;16.23;4.30;;;;;;;9.29;75.90;99716.69;5054774;28;20233;-73
2023/12/10 02:59:58;;;;;;;16.37;4.10;;;;;;;9.27;75.80;99724.00;5054507;28;20195;-73
2023/12/10 03:02:24;;;;;;;15.37;4.27;;;;;;;9.25;75.49;99732.16;5054423;28;20191;-74
2023/12/10 03:04:51;;;;;;;11.87;3.87;;;;;;;9.25;75.71;99744.69;5054420;28;20621;-74
2023/12/10 03:07:18;;;;;;;29.07;4.17;;;;;;;9.23;75.32;99747.50;5054396;28;20183;-74
2023/12/10 03:09:44;;;;;;;14.23;4.27;;;;;;;9.18;75.66;99732.00;5054367;28;20207;-74
2023/12/10 03:12:11;;;;;;;24.23;4.43;;;;;;;9.13;76.63;99754.84;5054235;28;20199;-74
2023/12/10 03:14:38;;;;;;;16.03;4.57;;;;;;;9.11;76.72;99757.69;5054200;28;20682;-74
2023/12/10 03:17:05;;;;;;;24.57;4.77;;;;;;;9.05;76.65;99755.66;5054003;28;20219;-73
2023/12/10 03:19:31;;;;;;;20.63;3.87;;;;;;;8.90;78.15;99772.50;5054370;28;20252;-73
2023/12/10 03:21:58;;;;;;;6.63;3.33;;;;;;;8.79;79.35;99773.63;5054380;28;20560;-73
2023/12/10 03:24:24;;;;;;;19.43;3.60;;;;;;;8.64;80.04;99775.25;5053623;28;20198;-73
2023/12/10 03:26:51;;;;;;;15.90;4.10;;;;;;;8.59;81.53;99778.41;5054037;28;20225;-73
2023/12/10 03:29:17;;;;;;;16.07;4.27;;;;;;;8.53;82.13;99786.22;5053935;28;20264;-73
2023/12/10 03:31:43;;;;;;;15.97;3.90;;;;;;;8.44;82.03;99789.84;5054471;28;20195;-73
2023/12/10 03:34:10;;;;;;;19.30;3.27;;;;;;;8.38;82.54;99786.00;5053891;28;20194;-73
2023/12/10 03:36:36;;;;;;;15.87;3.80;;;;;;;8.30;82.75;99783.31;5054256;28;20238;-74
2023/12/10 03:39:03;;;;;;;22.03;4.20;;;;;;;8.26;83.09;99787.25;5054198;28;20694;-74
2023/12/10 03:41:29;;;;;;;24.60;4.60;;;;;;;8.19;82.88;99781.72;5053766;28;20216;-73
2023/12/10 03:43:56;;;;;;;21.20;4.10;;;;;;;8.17;83.79;99780.22;5054264;28;20536;-73
2023/12/10 03:46:22;;;;;;;10.37;3.60;;;;;;;8.10;84.87;99785.34;5053923;28;20547;-73
2023/12/10 03:48:49;;;;;;;24.47;4.53;;;;;;;8.06;85.76;99789.28;5053576;28;20218;-72
2023/12/10 03:51:15;;;;;;;23.13;5.83;;;;;;;8.06;84.75;99794.63;5053599;28;20214;-73
2023/12/10 03:53:42;;;;;;;23.20;4.70;;;;;;;8.00;85.68;99802.41;5053573;28;20187;-73
2023/12/10 03:56:09;;;;;;;21.37;4.60;;;;;;;7.98;85.91;99812.38;5053946;28;20261;-73
2023/12/10 03:58:36;;;;;;;12.23;3.30;;;;;;;8.01;84.92;99818.25;5053486;28;20203;-74
2023/12/10 04:01:02;;;;;;;25.80;4.40;;;;;;;7.96;86.40;99817.03;5053945;28;20195;-74
2023/12/10 04:03:29;;;;;;;14.57;4.00;;;;;;;7.95;85.97;99810.03;5054212;28;20270;-74
2023/12/10 04:05:56;;;;;;;13.00;3.73;;;;;;;7.89;86.63;99818.66;5053341;28;20187;-74
2023/12/10 04:08:22;;;;;;;25.23;3.80;;;;;;;7.88;86.11;99814.31;5053215;28;20293;-74
2023/12/10 04:10:49;;;;;;;23.30;4.10;;;;;;;7.79;87.01;99826.72;5053246;28;20187;-74
2023/12/10 04:13:15;;;;;;;14.90;4.50;;;;;;;7.81;87.31;99827.41;5053257;28;20183;-75
2023/12/10 04:15:44;;;;;;;17.13;3.80;;;;;;;7.76;86.73;99792.47;5053198;28;20197;-75
2023/12/10 04:18:11;;;;;;;23.63;4.90;;;;;;;7.76;87.65;99819.91;5053017;28;20562;-74
2023/12/10 04:20:38;;;;;;;15.07;4.67;;;;;;;7.78;87.57;99819.75;5053493;28;20577;-74
2023/12/10 04:23:04;;;;;;;15.13;3.70;;;;;;;7.73;88.36;99824.69;5053168;28;20550;-75
2023/12/10 04:25:30;;;;;;;17.63;3.77;;;;;;;7.71;88.13;99830.19;5053129;28;20217;-75
2023/12/10 04:27:57;;;;;;;20.33;3.97;;;;;;;7.72;88.53;99818.53;5053555;28;20229;-75
2023/12/10 04:30:24;;;;;;;25.43;4.43;;;;;;;7.67;88.41;99828.81;5053053;28;20242;-75
2023/12/10 04:32:51;;;;;;;17.90;4.27;;;;;;;7.73;87.87;99828.19;5053022;28;20195;-75
2023/12/10 04:35:18;;;;;;;19.20;3.63;;;;;;;7.71;88.32;99826.69;5053535;28;20191;-75
2023/12/10 04:37:44;;;;;;;20.27;3.80;;;;;;;7.76;88.47;99827.06;5057388;28;20214;-76
2023/12/10 04:40:11;;;;;;;15.00;4.77;;;;;;;7.73;88.53;99824.69;5057337;28;20211;-76
2023/12/10 04:42:38;;;;;;;19.17;4.20;;;;;;;7.72;89.40;99831.03;5056464;28;20187;-75
2023/12/10 04:45:08;;;;;;;23.57;3.57;;;;;;;7.70;88.70;99825.00;5057328;28;20694;-75
2023/12/10 04:47:36;;;;;;;25.20;4.57;;;;;;;7.61;89.12;99815.28;5057308;28;20179;-75
2023/12/10 04:50:03;;;;;;;27.80;4.03;;;;;;;7.64;88.84;99825.59;5056904;28;20713;-75
2023/12/10 04:52:30;;;;;;;21.93;4.93;;;;;;;7.63;89.15;99832.78;5056925;28;20257;-75
2023/12/10 04:54:58;;;;;;;24.53;4.30;;;;;;;7.69;88.96;99840.13;5057128;28;20198;-75
2023/12/10 04:57:25;;;;;;;23.80;3.87;;;;;;;7.67;88.94;99827.97;5056979;28;20210;-75
2023/12/10 04:59:52;;;;;;;6.07;3.00;;;;;;;7.68;88.64;99830.47;5057300;28;20207;-75
2023/12/10 05:02:19;;;;;;;16.60;3.77;;;;;;;7.69;89.47;99831.31;5057003;28;20191;-75
2023/12/10 05:04:45;;;;;;;23.10;3.93;;;;;;;7.76;88.40;99835.03;5056725;28;20187;-75
2023/12/10 05:07:12;;;;;;;14.80;4.33;;;;;;;7.76;88.75;99841.19;5056637;28;20655;-75
2023/12/10 05:09:38;;;;;;;18.70;3.97;;;;;;;7.72;88.54;99844.31;5056571;28;20272;-75
2023/12/10 05:12:05;;;;;;;22.93;4.33;;;;;;;7.73;88.17;99833.50;5056879;28;20186;-75
2023/12/10 05:14:31;;;;;;;21.70;3.70;;;;;;;7.75;88.53;99838.69;5056883;28;20179;-75
2023/12/10 05:16:58;;;;;;;23.23;4.90;;;;;;;7.69;89.30;99863.22;5056717;28;20219;-75
2023/12/10 05:19:25;;;;;;;15.03;3.40;;;;;;;7.75;88.90;99846.66;5056653;28;20268;-75
2023/12/10 05:21:52;;;;;;;28.30;5.20;;;;;;;7.76;88.11;99851.00;5056382;28;20659;-75
2023/12/10 05:24:18;;;;;;;17.97;3.87;;;;;;;7.74;88.23;99853.81;5056634;28;20309;-75
2023/12/10 05:26:45;;;;;;;18.40;3.90;;;;;;;7.78;87.72;99846.34;5056591;28;20262;-75
2023/12/10 05:29:11;;;;;;;11.87;3.73;;;;;;;7.75;87.96;99857.31;5056234;28;20579;-75
2023/12/10 05:31:38;;;;;;;18.80;3.40;;;;;;;7.77;87.10;99852.66;5056207;28;20234;-75
2023/12/10 05:34:04;;;;;;;15.63;3.87;;;;;;;7.77;86.92;99860.63;5056143;28;20183;-75
2023/12/10 05:36:31;;;;;;;26.03;4.57;;;;;;;7.75;87.63;99870.59;5056063;28;20193;-75
2023/12/10 05:38:57;;;;;;;32.07;5.30;;;;;;;7.75;86.91;99873.25;5056164;28;20203;-76
2023/12/10 05:41:24;;;;;;;21.37;4.97;;;;;;;7.75;86.88;99854.66;5055982;28;20663;-75
2023/12/10 05:43:50;;;;;;;26.80;6.07;;;;;;;7.78;87.42;99878.28;5055998;28;20195;-75
2023/12/10 05:46:17;;;;;;;21.63;4.70;;;;;;;7.79;87.13;99877.28;5055896;28;20191;-75
2023/12/10 05:48:43;;;;;;;22.00;4.70;;;;;;;7.80;86.49;99878.97;5054797;28;20222;-75
2023/12/10 05:51:10;;;;;;;10.03;4.27;;;;;;;7.82;85.63;99874.31;5056110;28;20219;-75
2023/12/10 05:53:36;;;;;;;20.77;4.20;;;;;;;7.82;86.53;99877.81;5055787;28;20198;-75
2023/12/10 05:56:03;;;;;;;17.10;3.87;;;;;;;7.82;86.09;99874.31;5055784;28;20780;-75
2023/12/10 05:58:30;;;;;;;12.67;3.97;;;;;;;7.80;86.14;99885.13;5055845;28;20679;-75
2023/12/10 06:00:57;;;;;;;15.07;3.97;;;;;;;7.82;86.15;99882.28;5055650;28;20237;-75
2023/12/10 06:03:24;;;;;;;9.43;4.10;;;;;;;7.84;84.89;99893.63;5055616;28;20187;-75
2023/12/10 06:05:51;;;;;;;29.37;4.33;;;;;;;7.93;84.52;99895.38;5055889;28;20194;-75
2023/12/10 06:08:18;;;;;;;16.77;4.27;;;;;;;7.93;85.26;99895.38;5056048;28;20207;-75
2023/12/10 06:10:44;;;;;;;23.83;4.37;;;;;;;7.96;84.19;99891.56;5055486;28;20194;-75
2023/12/10 06:13:11;;;;;;;18.53;5.03;;;;;;;8.09;81.99;99903.47;5055932;28;20210;-75
2023/12/10 06:15:37;;;;;;;23.37;5.17;;;;;;;8.10;82.31;99906.97;5055978;28;20238;-75
2023/12/10 06:18:04;;;;;;;18.27;4.30;;;;;;;8.09;82.68;99899.97;5055370;28;20695;-75
2023/12/10 06:20:31;;;;;;;15.07;4.37;;;;;;;8.13;82.39;99910.16;5055376;28;20175;-75
2023/12/10 06:22:57;;;;;;;18.37;3.53;;;;;;;8.13;81.60;99903.97;5055539;28;20233;-75
2023/12/10 06:25:23;;;;;;;12.67;3.40;;;;;;;8.23;80.77;99902.06;5055779;28;20509;-75
2023/12/10 06:27:50;;;;;;;20.70;3.60;;;;;;;8.20;81.89;99924.50;5055446;28;20175;-75
2023/12/10 06:30:16;;;;;;;22.03;4.27;;;;;;;8.18;81.02;99923.00;5055384;28;20211;-75
2023/12/10 06:32:43;;;;;;;18.50;4.07;;;;;;;8.21;81.30;99941.31;5055948;28;20618;-75
2023/12/10 06:35:09;;;;;;;17.33;3.60;;;;;;;8.28;80.71;99919.22;5055261;28;20195;-75
2023/12/10 06:37:37;;;;;;;10.23;3.63;;;;;;;8.25;80.68;99940.84;5054903;28;20207;-75
2023/12/10 06:40:05;;;;;;;11.97;4.17;;;;;;;8.33;79.30;99941.91;5054950;28;20225;-75
2023/12/10 06:42:33;;;;;;;18.73;3.83;;;;;;;8.39;79.68;99959.94;5055201;28;20183;-75
2023/12/10 06:45:00;;;;;;;16.23;3.40;;;;;;;8.41;79.20;99955.28;5054857;28;20659;-75
2023/12/10 06:47:27;;;;;;;11.70;3.10;;;;;;;8.37;79.07;99956.59;5055368;28;20198;-75
2023/12/10 06:49:53;;;;;;;8.60;2.87;;;;;;;8.46;78.35;99959.16;5054673;28;20302;-75
2023/12/10 06:52:20;;;;;;;15.20;3.80;;;;;;;8.53;77.29;99962.03;5054714;28;20210;-75
2023/12/10 06:54:46;;;;;;;17.33;3.57;;;;;;;8.59;76.97;99964.91;5054666;28;20187;-74
2023/12/10 06:57:13;;;;;;;11.03;3.87;;;;;;;8.60;77.30;99973.72;5054765;28;20239;-75
2023/12/10 06:59:39;;;;;;;16.73;4.10;;;;;;;8.67;76.53;99988.09;5054555;28;20610;-75
2023/12/10 07:02:06;;;;;;;17.77;3.83;;;;;;;8.70;75.75;99977.94;5054537;28;20601;-74
2023/12/10 07:04:33;;;;;;;9.03;3.40;;;;;;;8.75;75.98;99998.78;5055010;28;20550;-74
2023/12/10 07:06:59;;;;;;;21.00;3.57;;;;;;;8.74;76.66;99999.81;5054503;28;20537;-74
2023/12/10 07:09:26;;;;;;;18.60;4.20;;;;;;;8.75;76.05;100005.94;5054343;28;20211;-74
2023/12/10 07:11:52;;;;;;;18.90;3.33;;;;;;;8.73;76.34;100019.44;5054645;28;20179;-74
2023/12/10 07:14:19;;;;;;;19.73;4.27;;;;;;;8.79;75.96;100007.31;5055414;28;20539;-74
2023/12/10 07:16:46;;;;;;;7.87;3.20;;;;;;;8.77;75.98;100030.63;5054188;28;20692;-74
2023/12/10 07:19:13;;;;;;;21.00;3.37;;;;;;;8.79;75.45;100042.78;5054238;28;20215;-74
2023/12/10 07:21:39;;;;;;;11.37;4.07;;;;;;;8.77;76.08;100041.28;5054133;28;20191;-74
2023/12/10 07:24:06;;;;;;;15.50;4.13;;;;;;;8.77;75.88;100047.44;5054379;28;20187;-74
2023/12/10 07:26:33;;;;;;;14.43;3.37;;;;;;;8.79;76.46;100056.13;5054341;28;20241;-75
2023/12/10 07:28:59;;;;;;;20.20;4.17;;;;;;;8.88;74.79;100057.00;5054317;28;20207;-75
2023/12/10 07:31:26;;;;;;;12.37;4.07;;;;;;;8.84;75.53;100060.97;5053888;28;20198;-75
2023/12/10 07:33:52;;;;;;;16.10;4.40;;;;;;;8.95;73.83;100045.59;5053875;28;20192;-74
2023/12/10 07:36:19;;;;;;;15.43;4.17;;;;;;;9.02;73.38;100061.75;5053842;28;20187;-75
2023/12/10 07:38:45;;;;;;;13.70;3.40;;;;;;;9.00;73.67;100051.25;5054336;28;20230;-75
2023/12/10 07:41:13;;;;;;;12.30;4.13;;;;;;;8.94;74.83;100067.88;5053748;28;20191;-75
2023/12/10 07:43:39;;;;;;;16.50;4.50;;;;;;;8.98;74.48;100076.41;5054054;28;20183;-75
2023/12/10 07:46:06;;;;;;;23.13;3.20;;;;;;;8.98;73.93;100084.41;5053667;28;20196;-74
2023/12/10 07:48:33;;;;;;;18.63;3.83;;;;;;;8.99;73.52;100083.41;5054421;28;20199;-75
2023/12/10 07:51:01;;;;;;;9.00;3.80;;;;;;;9.01;73.76;100098.25;5053639;28;20215;-75
2023/12/10 07:53:27;;;;;;;20.17;4.63;;;;;;;8.99;73.99;100105.59;5053610;28;20530;-74
2023/12/10 07:55:54;;;;;;;15.77;3.67;;;;;;;9.03;73.41;100098.94;5053537;28;20237;-75
2023/12/10 07:58:22;;;;;;;24.83;4.13;;;;;;;9.00;74.10;100107.22;5053621;28;20219;-75
2023/12/10 08:00:48;;;;;;;22.27;3.50;;;;;;;9.01;73.80;100127.56;5053732;28;20260;-75
2023/12/10 08:03:15;;;;;;;14.90;4.93;;;;;;;8.99;74.02;100124.25;5053387;28;20205;-75
2023/12/10 08:05:42;;;;;;;13.70;4.23;;;;;;;9.03;73.67;100130.94;5053648;28;20594;-75
2023/12/10 08:08:08;;;;;;;18.57;3.97;;;;;;;9.05;73.06;100144.94;5053355;28;20278;-75
2023/12/10 08:10:35;;;;;;;7.57;3.87;;;;;;;9.03;74.17;100138.09;5052951;28;20274;-75
2023/12/10 08:13:02;;;;;;;15.47;4.13;;;;;;;9.03;73.67;100136.28;5053327;28;20183;-75
2023/12/10 08:15:28;;;;;;;22.13;4.43;;;;;;;9.01;73.95;100138.25;5053796;28;20190;-74
2023/12/10 08:17:55;;;;;;;16.17;3.63;;;;;;;9.02;73.65;100152.41;5052915;28;20218;-75
2023/12/10 08:20:21;;;;;;;19.80;3.13;;;;;;;9.02;74.09;100141.75;5053428;28;20274;-75
2023/12/10 08:22:48;;;;;;;20.53;4.23;;;;;;;9.06;73.64;100156.44;5053419;28;20187;-75
2023/12/10 08:25:15;;;;;;;8.33;3.00;;;;;;;8.99;74.22;100163.41;5053667;28;20215;-74
2023/12/10 08:27:41;;;;;;;14.27;3.53;;;;;;;8.99;74.55;100172.25;5053100;28;20597;-74
2023/12/10 08:30:09;;;;;;;35.10;4.03;;;;;;;8.99;73.92;100169.56;5052948;28;20207;-75
2023/12/10 08:32:35;;;;;;;13.00;3.97;;;;;;;8.99;74.18;100190.91;5052995;28;20194;-75
2023/12/10 08:35:02;;;;;;;11.70;3.30;;;;;;;8.99;73.82;100187.41;5053279;28;20608;-74
2023/12/10 08:37:29;;;;;;;10.03;3.20;;;;;;;8.92;74.88;100189.81;5053190;28;20207;-74
2023/12/10 08:39:55;;;;;;;6.50;2.83;;;;;;;8.94;74.30;100208.34;5052849;28;20764;-74
2023/12/10 08:42:22;;;;;;;8.87;3.83;;;;;;;8.93;75.08;100207.50;5053221;28;20617;-74
2023/12/10 08:44:49;;;;;;;11.63;3.77;;;;;;;8.98;74.40;100223.88;5053098;28;20570;-75
2023/12/10 08:47:15;;;;;;;15.13;3.73;;;;;;;8.93;75.01;100226.16;5052892;28;20197;-74
2023/12/10 08:49:42;;;;;;;15.80;4.47;;;;;;;8.93;74.23;100223.50;5053122;28;20218;-74
2023/12/10 08:52:08;;;;;;;12.93;3.13;;;;;;;8.98;73.92;100236.38;5052919;28;20242;-74
2023/12/10 08:54:35;;;;;;;7.37;3.03;;;;;;;9.01;74.12;100252.03;5052687;28;20199;-74
2023/12/10 08:57:01;;;;;;;10.53;4.13;;;;;;;9.03;73.94;100248.25;5053401;28;20234;-74
2023/12/10 08:59:27;;;;;;;12.87;4.17;;;;;;;9.03;74.13;100245.59;5052661;28;20264;-74
2023/12/10 09:01:54;;;;;;;25.27;4.23;;;;;;;8.96;74.97;100260.50;5053363;28;20180;-74
2023/12/10 09:04:20;;;;;;;19.30;3.23;;;;;;;8.90;75.12;100266.47;5052763;28;20179;-74
2023/12/10 09:06:47;;;;;;;13.47;3.70;;;;;;;8.93;74.80;100276.81;5052746;28;20233;-74
2023/12/10 09:09:13;;;;;;;9.60;3.93;;;;;;;8.92;74.84;100277.78;5052931;28;20238;-74
2023/12/10 09:11:41;;;;;;;14.83;3.57;;;;;;;8.87;75.77;100279.25;5052719;28;20713;-75
2023/12/10 09:14:10;;;;;;;16.23;3.40;;;;;;;8.92;75.15;100272.47;5052569;28;20275;-74
2023/12/10 09:16:38;;;;;;;8.67;4.00;;;;;;;8.84;75.89;100284.88;5053035;28;20183;-74
2023/12/10 09:19:04;;;;;;;13.17;3.20;;;;;;;8.86;76.41;100286.41;5053033;28;20226;-74
2023/12/10 09:21:31;;;;;;;12.60;4.20;;;;;;;8.86;76.03;100285.56;5053497;28;20179;-74
2023/12/10 09:23:57;;;;;;;11.13;3.57;;;;;;;8.77;76.46;100273.16;5056410;28;20695;-74
2023/12/10 09:26:25;;;;;;;11.83;3.87;;;;;;;8.79;76.43;100287.97;5056459;28;20178;-74
2023/12/10 09:28:52;;;;;;;7.30;4.27;;;;;;;8.79;76.65;100289.81;5056491;28;20542;-74
2023/12/10 09:31:19;;;;;;;21.23;4.13;;;;;;;8.82;76.54;100297.53;5056496;28;20191;-74
2023/12/10 09:33:45;;;;;;;18.90;3.90;;;;;;;8.83;76.54;100313.34;5056240;28;20191;-74
2023/12/10 09:36:12;;;;;;;12.77;3.70;;;;;;;8.79;76.70;100306.66;5056462;28;20180;-74
2023/12/10 09:38:38;;;;;;;16.87;4.80;;;;;;;8.81;76.67;100299.34;5056222;28;20211;-74
2023/12/10 09:41:05;;;;;;;12.63;4.20;;;;;;;8.79;76.94;100300.47;5055959;28;20663;-74
2023/12/10 09:43:31;;;;;;;28.90;4.77;;;;;;;8.83;76.63;100305.34;5055335;28;20574;-73
2023/12/10 09:45:58;;;;;;;14.80;3.60;;;;;;;8.79;77.36;100309.31;5055897;28;20581;-74
2023/12/10 09:48:25;;;;;;;22.83;5.53;;;;;;;8.81;76.79;100315.34;5056372;28;20757;-74
2023/12/10 09:50:53;;;;;;;13.70;4.23;;;;;;;8.90;76.37;100310.94;5056173;28;20180;-74
2023/12/10 09:53:21;;;;;;;15.13;4.13;;;;;;;8.90;76.87;100321.59;5056048;28;20716;-74
2023/12/10 09:55:48;;;;;;;13.00;3.80;;;;;;;8.83;77.29;100316.00;5055721;28;20199;-74
2023/12/10 09:58:15;;;;;;;12.37;3.97;;;;;;;8.92;77.02;100309.78;5055620;28;20269;-74
2023/12/10 10:00:41;;;;;;;15.77;3.53;;;;;;;8.87;77.33;100324.56;5056293;28;20221;-74
2023/12/10 10:03:10;;;;;;;15.13;3.73;;;;;;;8.92;76.45;100328.44;5055981;28;20635;-74
2023/12/10 10:05:37;;;;;;;8.50;3.30;;;;;;;8.89;75.84;100319.91;5055607;28;20191;-74
2023/12/10 10:08:03;;;;;;;14.13;3.97;;;;;;;8.92;75.82;100325.78;5055717;28;20188;-73
2023/12/10 10:10:30;;;;;;;15.83;4.40;;;;;;;8.96;76.46;100324.50;5055508;28;20659;-74
2023/12/10 10:12:58;;;;;;;8.87;3.37;;;;;;;8.97;76.09;100333.31;5056040;28;20213;-74
2023/12/10 10:15:29;;;;;;;20.03;4.13;;;;;;;9.03;75.77;100322.91;5055757;28;20186;-74
2023/12/10 10:17:57;;;;;;;14.87;4.13;;;;;;;8.99;75.50;100320.69;5055156;28;20686;-74
2023/12/10 10:20:25;;;;;;;21.20;4.20;;;;;;;9.02;75.59;100329.22;5055609;28;20179;-73
2023/12/10 10:22:54;;;;;;;11.50;4.33;;;;;;;8.99;75.69;100328.69;5056101;28;20196;-74
2023/12/10 10:25:20;;;;;;;11.40;3.83;;;;;;;9.02;75.37;100326.56;5055286;28;20601;-73
2023/12/10 10:27:50;;;;;;;16.23;3.57;;;;;;;9.08;73.98;100319.78;5055230;28;20244;-74
2023/12/10 10:30:17;;;;;;;20.17;4.27;;;;;;;9.01;74.98;100319.53;5055184;28;20215;-73
2023/12/10 10:32:44;;;;;;;34.07;4.50;;;;;;;9.04;75.33;100321.91;5054910;28;20229;-73
2023/12/10 10:35:12;;;;;;;23.47;4.47;;;;;;;9.03;75.18;100304.25;5054734;28;20183;-73
2023/12/10 10:37:38;;;;;;;13.30;4.30;;;;;;;9.02;75.21;100313.22;5055480;28;20198;-73
2023/12/10 10:40:06;;;;;;;12.87;4.47;;;;;;;9.00;74.78;100312.53;5054891;28;20585;-73
2023/12/10 10:42:32;;;;;;;14.60;3.90;;;;;;;9.02;75.48;100317.72;5055199;28;20194;-73
2023/12/10 10:45:02;;;;;;;17.20;4.07;;;;;;;9.01;75.60;100318.69;5055330;28;20206;-74
2023/12/10 10:47:30;;;;;;;22.60;4.77;;;;;;;9.02;75.81;100323.91;5054828;28;20662;-73
2023/12/10 10:50:01;;;;;;;15.47;4.73;;;;;;;9.02;75.79;100336.38;5054979;28;20294;-73
2023/12/10 10:52:48;;;;;;;15.33;4.77;;;;;;;8.99;76.11;100331.38;5055009;28;20274;-73
2023/12/10 10:55:16;;;;;;;18.67;4.03;;;;;;;9.02;76.06;100331.91;5054703;28;20202;-73
2023/12/10 10:57:42;;;;;;;11.80;4.83;;;;;;;9.05;75.03;100336.06;5054515;28;20195;-73
2023/12/10 11:00:18;;;;;;;22.80;4.77;;;;;;;9.08;75.67;100352.59;5055507;28;20741;-74
2023/12/10 11:02:46;;;;;;;21.77;5.50;;;;;;;9.09;75.20;100340.13;5054544;28;20182;-73
2023/12/10 11:05:13;;;;;;;15.20;4.30;;;;;;;9.14;74.63;100354.69;5054506;28;20556;-73
2023/12/10 11:07:40;;;;;;;17.30;4.73;;;;;;;9.10;75.37;100336.47;5054735;28;20187;-73
2023/12/10 11:10:07;;;;;;;17.00;4.47;;;;;;;9.15;75.09;100344.84;5054312;28;20227;-73
2023/12/10 11:12:40;;;;;;;15.27;5.07;;;;;;;9.21;75.31;100346.91;5053073;28;20195;-73
2023/12/10 11:15:12;;;;;;;12.03;5.20;;;;;;;9.24;75.28;100337.78;5054815;28;20172;-73
2023/12/10 11:17:53;;;;;;;19.43;5.43;;;;;;;9.25;75.56;100331.44;5054269;28;20191;-73
2023/12/10 11:20:38;;;;;;;19.53;5.03;;;;;;;9.28;75.62;100331.13;5054478;28;20218;-73
2023/12/10 11:23:10;;;;;;;12.33;4.50;;;;;;;9.33;75.50;100334.19;5054141;28;20195;-73
2023/12/10 11:25:38;;;;;;;14.63;5.23;;;;;;;9.34;75.25;100341.19;5054424;28;20373;-73
2023/12/10 11:28:17;;;;;;;12.80;4.50;;;;;;;9.39;75.09;100331.72;5053969;28;20568;-73
2023/12/10 11:30:45;;;;;;;27.70;5.30;;;;;;;9.32;75.99;100344.00;5054029;28;20236;-73